Kaur, Gambia

5:15 AM GMT on September 23, 2014 (GMT +0000)
Kolda | Change Station
CLOSE
Current Station
Airport
Location: Kolda,
Elevation: 33 ft
Nearby Weather Stations

Elev 33 ft 12.88 °N, 14.97 °W | Updated 2 hours ago

Mostly Cloudy
Mostly Cloudy
77 °F
Feels Like 77 °F
N
0
Wind Variable Wind from North

Today
High -- | Low -- °F
--% Chance of Precip.
Yesterday
High -- | Low -- °F
Precip. -- in
6:50 AM 6:56 PM
Waning Crescent, 1% visible
Pressure 29.89 in
Visibility 5.0 miles
Clouds Scattered Clouds 1300 ft
Mostly Cloudy 13000 ft
Dew Point 75 °F
Humidity 94%
Rainfall 0.00 in
Snow Depth Not available.
UV 0 out of 12
Pollen Not available.
Air Quality Not available.
Flu Activity Not available.
METAR GOGK 230300Z 00000KT 8000 SCT013 BKN130 25/24 Q1012

More Conditions Fewer Conditions

Pressure 29.89 in
Visibility 5.0 miles
Clouds Scattered Clouds 1300 ft
Mostly Cloudy 13000 ft
Dew Point 75 °F
Humidity 94%
Rainfall 0.00 in
Snow Depth Not available.
UV 0 out of 12
Pollen Not available.
Air Quality Not available.
Flu Activity Not available.
METAR GOGK 230300Z 00000KT 8000 SCT013 BKN130 25/24 Q1012

More Conditions Fewer Conditions

10-Day Weather Forecast

Almanac

Astronomy

Sep. 23, 2014 Rise Set
Actual Time 6:50 AM GMT 6:56 PM GMT
Civil Twilight 6:28 AM GMT 7:17 PM GMT
Nautical Twilight 6:04 AM GMT 7:42 PM GMT
Astronomical Twilight 5:39 AM GMT 8:07 PM GMT
Moon 6:06 AM GMT 6:29 PM GMT
Length of Visible Light 12h 48m
Length of Day
12h 06m
Tomorrow will be 0m 45s shorter.
Waning Crescent, 1% of the Moon is Illuminated
Today
Waning Crescent
Sep 24
New
Oct 1
First Quarter
Oct 8
Full
Oct 15
Last Quarter

Yesterday's Extremes

Country Highs Country Lows

Community

WunderPhotos

Upload Photos

1,755,607 photos uploaded!

Nearby

Snow Depth

Not available.

Earthquake Activity

City Distance Mag. Time & Date
No recent earthquake activity has been reported nearby.
Minimum magnitude displayed is 2.5.

Coastal Water Temperatures

Place Temperature
No Stations Reporting

Nearby Weather Stations